Time;durP1;ratioP1;P1;durP2;ratioP2;P2;SDS_P1;SDS_P2;PMS_P1;PMS_P2;Temp;Humidity;BMP_temperature;BMP_pressure;BME280_temperature;BME280_humidity;BME280_pressure;Samples;Min_cycle;Max_cycle;Signal;HPM_P1;HPM_P2
2023/06/20 00:00:27;;;;;;;1999.90;999.90;;;20.60;99.90;;;;;;5010758;28;20850;-73
2023/06/20 00:02:54;;;;;;;1999.90;999.90;;;20.60;99.90;;;;;;5010561;28;20432;-73
2023/06/20 00:05:20;;;;;;;1999.90;999.90;;;20.40;99.90;;;;;;5011313;28;20444;-74
2023/06/20 00:07:47;;;;;;;1999.90;999.90;;;20.10;99.90;;;;;;5009153;28;20490;-74
2023/06/20 00:10:15;;;;;;;1999.90;999.90;;;20.00;99.90;;;;;;5009667;28;20437;-73
2023/06/20 00:12:42;;;;;;;1999.90;999.90;;;20.00;99.90;;;;;;5009847;28;20437;-74
2023/06/20 00:15:09;;;;;;;1999.90;999.90;;;20.20;99.90;;;;;;5011014;28;20943;-74
2023/06/20 00:17:36;;;;;;;1999.90;999.90;;;20.20;99.90;;;;;;5010746;28;20877;-73
2023/06/20 00:20:04;;;;;;;1999.90;999.90;;;20.20;99.90;;;;;;5010463;28;20919;-72
2023/06/20 00:22:34;;;;;;;1999.90;999.90;;;20.50;99.90;;;;;;5009704;28;20432;-71
2023/06/20 00:25:01;;;;;;;1999.90;999.90;;;20.50;99.90;;;;;;5009473;28;20444;-72
2023/06/20 00:27:29;;;;;;;1999.90;999.90;;;20.60;99.90;;;;;;5009444;28;20437;-74
2023/06/20 00:29:56;;;;;;;1999.90;999.90;;;20.80;99.90;;;;;;5007471;28;20796;-72
2023/06/20 00:32:23;;;;;;;1999.90;999.90;;;20.90;99.90;;;;;;5009682;28;20444;-72
2023/06/20 00:34:49;;;;;;;1999.90;999.90;;;20.80;99.90;;;;;;5010803;28;20614;-72
2023/06/20 00:37:16;;;;;;;1999.90;999.90;;;20.90;99.90;;;;;;5010566;28;20874;-72
2023/06/20 00:39:43;;;;;;;1999.90;999.90;;;20.70;99.90;;;;;;5009610;28;20433;-71
2023/06/20 00:42:17;;;;;;;1999.90;999.90;;;20.40;99.90;;;;;;5007491;28;20440;-70
2023/06/20 00:44:45;;;;;;;1999.90;999.90;;;20.40;99.90;;;;;;5007391;28;20459;-71
2023/06/20 00:47:12;;;;;;;1999.90;999.90;;;20.50;99.90;;;;;;5010506;28;20507;-73
2023/06/20 00:49:39;;;;;;;1999.90;999.90;;;20.20;99.90;;;;;;5009648;28;20440;-75
2023/06/20 00:52:07;;;;;;;1999.90;999.90;;;20.30;99.90;;;;;;5008031;28;20482;-72
2023/06/20 00:54:34;;;;;;;1999.90;999.90;;;20.20;99.90;;;;;;5009273;28;20441;-73
2023/06/20 00:57:02;;;;;;;1999.90;999.90;;;20.20;99.90;;;;;;5009739;28;20919;-73
2023/06/20 00:59:29;;;;;;;1999.90;999.90;;;20.20;99.90;;;;;;5013595;28;20431;-73
2023/06/20 01:01:57;;;;;;;1999.90;999.90;;;20.20;99.90;;;;;;5008476;28;20447;-73
2023/06/20 01:04:23;;;;;;;1999.90;999.90;;;20.10;99.90;;;;;;5007413;28;20487;-74
2023/06/20 01:07:00;;;;;;;1999.90;999.90;;;20.20;99.90;;;;;;5008674;28;20442;-73
2023/06/20 01:09:38;;;;;;;1999.90;999.90;;;20.30;99.90;;;;;;5007551;28;20444;-73
2023/06/20 01:12:15;;;;;;;1999.90;999.90;;;20.40;99.90;;;;;;5007168;28;20511;-74
2023/06/20 01:14:50;;;;;;;1999.90;999.90;;;20.50;99.90;;;;;;5008724;28;20436;-74
2023/06/20 01:17:26;;;;;;;1999.90;999.90;;;20.40;99.90;;;;;;5009190;28;20432;-74
2023/06/20 01:20:12;;;;;;;1999.90;999.90;;;20.40;99.90;;;;;;5009254;28;20444;-74
2023/06/20 01:22:48;;;;;;;1999.90;999.90;;;20.50;99.90;;;;;;5008687;28;20440;-73
2023/06/20 01:25:24;;;;;;;1999.90;999.90;;;20.60;99.90;;;;;;5004802;28;20861;-73
2023/06/20 01:27:57;;;;;;;1999.90;999.90;;;20.50;99.90;;;;;;5009098;28;20441;-74
2023/06/20 01:30:30;;;;;;;1999.90;999.90;;;20.50;99.90;;;;;;5008058;28;20872;-73
2023/06/20 01:33:02;;;;;;;1999.90;999.90;;;20.90;99.90;;;;;;5008449;28;20441;-73
2023/06/20 01:35:31;;;;;;;1999.90;999.90;;;20.40;99.90;;;;;;5009243;28;20967;-72
2023/06/20 01:38:02;;;;;;;1999.90;999.90;;;20.50;99.90;;;;;;5009211;28;21049;-74
2023/06/20 01:40:30;;;;;;;1999.90;999.90;;;20.60;99.90;;;;;;5007225;28;20980;-71
2023/06/20 01:42:59;;;;;;;1999.90;999.90;;;20.70;99.90;;;;;;5007807;28;20445;-74
2023/06/20 01:45:28;;;;;;;1999.90;999.90;;;20.60;99.90;;;;;;5008770;28;20522;-74
2023/06/20 01:47:59;;;;;;;1999.90;999.90;;;20.70;99.90;;;;;;5009554;28;20486;-71
2023/06/20 01:50:28;;;;;;;1999.90;999.90;;;20.80;99.90;;;;;;5008057;28;20965;-74
2023/06/20 01:52:56;;;;;;;1999.90;999.90;;;21.00;99.90;;;;;;5007898;28;20446;-74
2023/06/20 01:55:26;;;;;;;1999.90;999.90;;;21.10;99.90;;;;;;5009175;28;20464;-71
2023/06/20 01:57:55;;;;;;;1999.90;999.90;;;21.00;99.90;;;;;;5008911;28;20456;-71
2023/06/20 02:00:24;;;;;;;1999.90;999.90;;;21.10;99.90;;;;;;5007455;28;20475;-69
2023/06/20 02:02:51;;;;;;;1999.90;999.90;;;20.80;99.90;;;;;;5008240;28;20504;-71
2023/06/20 02:05:20;;;;;;;1999.90;999.90;;;20.70;99.90;;;;;;5008064;28;20440;-71
2023/06/20 02:07:48;;;;;;;1999.90;999.90;;;20.50;99.90;;;;;;5008626;28;20854;-71
2023/06/20 02:10:16;;;;;;;1999.90;999.90;;;20.30;99.90;;;;;;5005670;28;20467;-70
2023/06/20 02:12:45;;;;;;;1999.90;999.90;;;20.40;99.90;;;;;;5005823;28;20510;-71
2023/06/20 02:15:13;;;;;;;1999.90;999.90;;;20.30;99.90;;;;;;5008904;28;20436;-72
2023/06/20 02:17:40;;;;;;;1999.90;999.90;;;20.30;99.90;;;;;;5008678;28;20441;-71
2023/06/20 02:20:08;;;;;;;1999.90;999.90;;;20.40;99.90;;;;;;5006623;28;20851;-71
2023/06/20 02:22:36;;;;;;;1999.90;999.90;;;20.50;99.90;;;;;;5008092;28;20459;-70
2023/06/20 02:25:07;;;;;;;1999.90;999.90;;;20.40;99.90;;;;;;5003377;28;20436;-70
2023/06/20 02:27:34;;;;;;;1999.90;999.90;;;20.50;99.90;;;;;;5007646;28;20479;-71
2023/06/20 02:30:04;;;;;;;1999.90;999.90;;;20.70;99.90;;;;;;5007919;28;20436;-70
2023/06/20 02:32:32;;;;;;;1999.90;999.90;;;20.60;99.90;;;;;;5008212;28;20440;-71
2023/06/20 02:35:00;;;;;;;1999.90;999.90;;;20.50;99.90;;;;;;5006983;28;20432;-70
2023/06/20 02:37:29;;;;;;;1999.90;999.90;;;20.40;99.90;;;;;;5007443;28;20850;-71
2023/06/20 02:39:56;;;;;;;1999.90;999.90;;;20.60;99.90;;;;;;5007593;28;20437;-71
2023/06/20 02:42:23;;;;;;;1999.90;999.90;;;20.60;99.90;;;;;;5007971;28;20439;-71
2023/06/20 02:44:49;;;;;;;1999.90;999.90;;;20.60;99.90;;;;;;5008601;28;20436;-71
2023/06/20 02:47:23;;;;;;;1999.90;999.90;;;20.60;99.90;;;;;;5009198;28;20499;-71
2023/06/20 02:50:00;;;;;;;1999.90;999.90;;;20.70;99.90;;;;;;5010159;28;20428;-70
2023/06/20 02:52:32;;;;;;;1999.90;999.90;;;20.80;99.90;;;;;;5011784;28;20927;-69
2023/06/20 02:55:10;;;;;;;1999.90;999.90;;;21.10;99.90;;;;;;5012520;28;20444;-70
2023/06/20 02:57:39;;;;;;;1999.90;999.90;;;20.80;99.90;;;;;;5008795;28;20436;-71
2023/06/20 03:00:09;;;;;;;1999.90;999.90;;;20.60;99.90;;;;;;5012012;28;20433;-73
2023/06/20 03:02:44;;;;;;;1999.90;999.90;;;20.50;99.90;;;;;;5011815;28;20461;-74
2023/06/20 03:05:15;;;;;;;1999.90;999.90;;;20.50;99.90;;;;;;5008937;28;20578;-73
2023/06/20 03:07:43;;;;;;;1999.90;999.90;;;20.60;99.90;;;;;;5008799;28;20432;-73
2023/06/20 03:10:11;;;;;;;1999.90;999.90;;;20.80;99.90;;;;;;5011188;28;20440;-74
2023/06/20 03:12:38;;;;;;;1999.90;999.90;;;20.90;99.90;;;;;;5011486;28;20428;-74
2023/06/20 03:15:06;;;;;;;1999.90;999.90;;;21.00;99.90;;;;;;5011540;28;20490;-72
2023/06/20 03:17:35;;;;;;;1999.90;999.90;;;20.90;99.90;;;;;;5011913;28;20919;-74
2023/06/20 03:20:04;;;;;;;1999.90;999.90;;;21.00;99.90;;;;;;5010436;28;20500;-74
2023/06/20 03:22:31;;;;;;;1999.90;999.90;;;20.90;99.90;;;;;;5011449;28;20998;-73
2023/06/20 03:24:57;;;;;;;1999.90;999.90;;;21.00;99.90;;;;;;5011125;28;20436;-71
2023/06/20 03:27:24;;;;;;;1999.90;999.90;;;21.00;99.90;;;;;;5011167;28;20931;-73
2023/06/20 03:29:50;;;;;;;1999.90;999.90;;;21.00;99.90;;;;;;5011513;28;20502;-72
2023/06/20 03:32:17;;;;;;;1999.90;999.90;;;21.00;99.90;;;;;;5010829;28;20486;-74
2023/06/20 03:34:44;;;;;;;1999.90;999.90;;;21.00;99.90;;;;;;5010382;28;20511;-72
2023/06/20 03:37:12;;;;;;;1999.90;999.90;;;21.00;99.90;;;;;;5011634;28;20511;-73
2023/06/20 03:39:39;;;;;;;1999.90;999.90;;;21.20;99.90;;;;;;5011790;28;20441;-74
2023/06/20 03:42:06;;;;;;;1999.90;999.90;;;20.90;99.90;;;;;;5011017;28;20519;-74
2023/06/20 03:44:33;;;;;;;1999.90;999.90;;;21.10;99.90;;;;;;5010109;28;20437;-73
2023/06/20 03:46:59;;;;;;;1999.90;999.90;;;21.20;99.90;;;;;;5010251;28;20502;-73
2023/06/20 03:49:26;;;;;;;1999.90;999.90;;;21.30;99.90;;;;;;5010337;28;20441;-74
2023/06/20 03:51:53;;;;;;;1999.90;999.90;;;21.20;99.90;;;;;;5009938;28;20440;-74
2023/06/20 03:54:21;;;;;;;1999.90;999.90;;;21.30;99.90;;;;;;5011335;28;20440;-73
2023/06/20 03:56:47;;;;;;;1999.90;999.90;;;21.40;99.90;;;;;;5010417;28;20432;-73
2023/06/20 03:59:15;;;;;;;1999.90;999.90;;;21.60;99.90;;;;;;5010872;28;20436;-73
2023/06/20 04:01:41;;;;;;;1999.90;999.90;;;21.60;99.90;;;;;;5010832;28;20436;-74
2023/06/20 04:04:09;;;;;;;1999.90;999.90;;;21.70;99.90;;;;;;5010000;28;20502;-74
2023/06/20 04:06:36;;;;;;;1999.90;999.90;;;21.70;99.90;;;;;;5009285;28;20439;-72
2023/06/20 04:09:04;;;;;;;1999.90;999.90;;;21.70;99.90;;;;;;5010573;28;20441;-74
2023/06/20 04:11:32;;;;;;;1999.90;999.90;;;21.50;99.90;;;;;;5010673;28;20442;-74
2023/06/20 04:13:58;;;;;;;1999.90;999.90;;;21.60;99.90;;;;;;5010713;28;20440;-73
2023/06/20 04:16:25;;;;;;;1999.90;999.90;;;21.60;99.90;;;;;;5010834;28;20429;-74
2023/06/20 04:18:52;;;;;;;1999.90;999.90;;;21.60;99.90;;;;;;5009725;28;20490;-73
2023/06/20 04:21:18;;;;;;;1999.90;999.90;;;21.60;99.90;;;;;;5010511;28;20436;-73
2023/06/20 04:23:46;;;;;;;1999.90;999.90;;;21.50;99.90;;;;;;5011046;28;20448;-74
2023/06/20 04:28:40;;;;;;;1999.90;999.90;;;21.70;99.90;;;;;;5043278;22;20440;-72
2023/06/20 04:31:06;;;;;;;1999.90;999.90;;;21.90;99.90;;;;;;5011311;28;20853;-73
2023/06/20 04:33:33;;;;;;;1999.90;999.90;;;21.90;99.90;;;;;;5011510;28;20440;-71
2023/06/20 04:36:00;;;;;;;1999.90;999.90;;;21.80;99.90;;;;;;5011572;28;20521;-70
2023/06/20 04:38:26;;;;;;;1999.90;999.90;;;21.80;99.90;;;;;;5029640;28;20442;-73
2023/06/20 04:40:53;;;;;;;1999.90;999.90;;;21.90;99.90;;;;;;5030073;28;20544;-72
2023/06/20 04:43:22;;;;;;;1999.90;999.90;;;21.80;99.90;;;;;;5028768;28;20549;-72
2023/06/20 04:45:50;;;;;;;1999.90;999.90;;;21.80;99.90;;;;;;5029686;28;20530;-71
2023/06/20 04:48:16;;;;;;;1999.90;999.90;;;21.80;99.90;;;;;;5030472;28;20431;-72
2023/06/20 04:50:43;;;;;;;1999.90;999.90;;;22.20;99.90;;;;;;5029792;28;20925;-72
2023/06/20 04:53:10;;;;;;;1999.90;999.90;;;22.00;99.90;;;;;;5027436;28;20461;-72
2023/06/20 04:55:38;;;;;;;1999.90;999.90;;;21.90;99.90;;;;;;5023098;28;20434;-73
2023/06/20 04:58:04;;;;;;;1999.90;999.90;;;21.80;99.90;;;;;;5024628;28;20483;-72
2023/06/20 05:00:31;;;;;;;1999.90;999.90;;;21.70;99.90;;;;;;5024538;28;20547;-71
2023/06/20 05:02:59;;;;;;;1999.90;999.90;;;21.70;99.90;;;;;;5028366;28;20439;-72
2023/06/20 05:05:29;;;;;;;1999.90;999.90;;;21.70;99.90;;;;;;5029474;28;20434;-69
2023/06/20 05:07:56;;;;;;;1999.90;999.90;;;21.60;99.90;;;;;;5029533;28;20434;-69
2023/06/20 05:10:23;;;;;;;1999.90;999.90;;;21.70;99.90;;;;;;5028761;28;20459;-72
2023/06/20 05:12:49;;;;;;;1999.90;999.90;;;21.70;99.90;;;;;;5026525;28;20963;-71
2023/06/20 05:15:23;;;;;;;1999.90;999.90;;;21.70;99.90;;;;;;5022228;28;20439;-70
2023/06/20 05:17:49;;;;;;;1999.90;999.90;;;21.80;99.90;;;;;;5029131;28;20951;-71
2023/06/20 05:20:18;;;;;;;1999.90;999.90;;;21.70;99.90;;;;;;5028444;28;20564;-71
2023/06/20 05:22:44;;;;;;;1999.90;999.90;;;21.80;99.90;;;;;;5028585;28;20492;-72
2023/06/20 05:25:11;;;;;;;1999.90;999.90;;;21.60;99.90;;;;;;5028970;28;20439;-72
2023/06/20 05:27:38;;;;;;;1999.90;999.90;;;21.70;99.90;;;;;;5028127;28;20465;-72
2023/06/20 05:30:06;;;;;;;1999.90;999.90;;;21.30;99.90;;;;;;5026725;28;20900;-71
2023/06/20 05:32:33;;;;;;;1999.90;999.90;;;21.30;99.90;;;;;;5025267;28;20496;-71
2023/06/20 05:34:59;;;;;;;1999.90;999.90;;;21.30;99.90;;;;;;5022709;28;20439;-70
2023/06/20 05:37:28;;;;;;;1999.90;999.90;;;21.10;99.90;;;;;;5027766;28;20426;-69
2023/06/20 05:39:55;;;;;;;1999.90;999.90;;;21.00;99.90;;;;;;5028524;28;20439;-70
2023/06/20 05:42:22;;;;;;;1999.90;999.90;;;20.90;99.90;;;;;;5028206;28;21227;-71
2023/06/20 05:44:49;;;;;;;1999.90;999.90;;;20.90;99.90;;;;;;5029490;28;20493;-72
2023/06/20 05:47:18;;;;;;;1999.90;999.90;;;20.80;99.90;;;;;;5026940;28;20983;-72
2023/06/20 05:49:45;;;;;;;1999.90;999.90;;;20.60;99.90;;;;;;5028768;28;20454;-72
2023/06/20 05:52:12;;;;;;;1999.90;999.90;;;20.60;99.90;;;;;;5028023;28;20492;-72
2023/06/20 05:54:41;;;;;;;1999.90;999.90;;;20.30;99.90;;;;;;5028507;28;20431;-72
2023/06/20 05:57:08;;;;;;;1999.90;999.90;;;20.10;99.90;;;;;;5026594;28;20441;-71
2023/06/20 05:59:35;;;;;;;1999.90;999.90;;;20.00;99.90;;;;;;5029061;28;20522;-72
2023/06/20 06:02:02;;;;;;;1999.90;999.90;;;19.80;99.90;;;;;;5027033;28;20430;-71
2023/06/20 06:04:28;;;;;;;1999.90;999.90;;;19.70;99.90;;;;;;5028233;28;20991;-73
2023/06/20 06:06:55;;;;;;;1999.90;999.90;;;19.70;99.90;;;;;;5027615;28;20925;-70
2023/06/20 06:09:22;;;;;;;1999.90;999.90;;;19.60;99.90;;;;;;5019759;28;20434;-70
2023/06/20 06:11:50;;;;;;;1999.90;999.90;;;19.80;99.90;;;;;;5026754;28;20440;-71
2023/06/20 06:14:16;;;;;;;1999.90;999.90;;;19.90;99.90;;;;;;5026632;28;20925;-72
2023/06/20 06:16:44;;;;;;;1999.90;999.90;;;20.10;99.90;;;;;;5021874;28;20443;-69
2023/06/20 06:19:11;;;;;;;1999.90;999.90;;;20.20;99.90;;;;;;5027176;28;20434;-71
2023/06/20 06:21:37;;;;;;;1999.90;999.90;;;20.40;99.90;;;;;;5025473;28;20492;-72
2023/06/20 06:24:06;;;;;;;1999.90;999.90;;;20.40;99.90;;;;;;5027249;28;20430;-68
2023/06/20 06:26:35;;;;;;;1999.90;999.90;;;20.40;99.90;;;;;;5027603;28;20435;-71
2023/06/20 06:29:04;;;;;;;1999.90;999.90;;;20.40;99.90;;;;;;5030140;28;20433;-72
2023/06/20 06:31:34;;;;;;;1999.90;999.90;;;20.60;99.90;;;;;;5029509;28;20419;-72
2023/06/20 06:34:01;;;;;;;1999.90;999.90;;;20.70;99.90;;;;;;5029886;28;20418;-72
2023/06/20 06:36:31;;;;;;;1999.90;999.90;;;20.70;99.90;;;;;;5029273;28;20429;-72
2023/06/20 06:38:58;;;;;;;1999.90;999.90;;;20.60;99.90;;;;;;5030050;28;20422;-72
2023/06/20 06:41:25;;;;;;;1999.90;999.90;;;20.70;99.90;;;;;;5029257;28;20407;-71
2023/06/20 06:43:52;;;;;;;1999.90;999.90;;;20.70;99.90;;;;;;5030211;28;20415;-72
2023/06/20 06:46:20;;;;;;;1999.90;999.90;;;20.60;99.90;;;;;;5029782;28;20956;-71
2023/06/20 06:48:48;;;;;;;1999.90;999.90;;;20.70;99.90;;;;;;5029056;28;20476;-72
2023/06/20 06:51:15;;;;;;;1999.90;999.90;;;20.80;99.90;;;;;;5029345;28;20481;-71
2023/06/20 06:53:42;;;;;;;1999.90;999.90;;;20.60;99.90;;;;;;5030184;28;20465;-72
2023/06/20 06:56:08;;;;;;;1999.90;999.90;;;20.60;99.90;;;;;;5029934;28;20779;-72
2023/06/20 06:58:35;;;;;;;1999.90;999.90;;;20.70;99.90;;;;;;5028092;28;20434;-72
2023/06/20 07:01:02;;;;;;;1999.90;999.90;;;20.70;99.90;;;;;;5026492;28;20434;-72
2023/06/20 07:03:31;;;;;;;1999.90;999.90;;;20.80;99.90;;;;;;5024718;28;20624;-72
2023/06/20 07:05:57;;;;;;;1999.90;999.90;;;20.80;99.90;;;;;;5027085;28;20481;-72
2023/06/20 07:08:24;;;;;;;1999.90;999.90;;;20.90;99.90;;;;;;5028065;28;20427;-72
2023/06/20 07:10:51;;;;;;;1999.90;999.90;;;20.90;99.90;;;;;;5026674;28;20509;-72
2023/06/20 07:13:18;;;;;;;1999.90;999.90;;;20.90;99.90;;;;;;5027080;28;20466;-73
2023/06/20 07:15:44;;;;;;;1999.90;999.90;;;21.20;99.90;;;;;;5025152;28;20451;-72
2023/06/20 07:18:11;;;;;;;1999.90;999.90;;;21.20;99.90;;;;;;5026494;28;20433;-72
2023/06/20 07:20:39;;;;;;;1999.90;999.90;;;21.10;99.90;;;;;;5027199;28;20464;-72
2023/06/20 07:23:06;;;;;;;1999.90;999.90;;;21.30;99.90;;;;;;5027504;28;20434;-72
2023/06/20 07:25:32;;;;;;;1999.90;999.90;;;21.40;99.90;;;;;;5027126;28;20434;-72
2023/06/20 07:27:59;;;;;;;1999.90;999.90;;;21.40;99.90;;;;;;5019338;28;20424;-70
2023/06/20 07:30:26;;;;;;;1999.90;999.90;;;21.30;99.90;;;;;;5026659;28;21419;-71
2023/06/20 07:32:52;;;;;;;1999.90;999.90;;;21.20;99.90;;;;;;5021362;28;20469;-70
2023/06/20 07:35:19;;;;;;;1999.90;999.90;;;21.30;99.90;;;;;;5022094;28;20437;-71
2023/06/20 07:37:47;;;;;;;1999.90;999.90;;;21.10;99.90;;;;;;5030959;28;20427;-72
2023/06/20 07:40:13;;;;;;;1999.90;999.90;;;21.10;99.90;;;;;;5028183;28;20480;-72
2023/06/20 07:42:40;;;;;;;1999.90;999.90;;;21.10;99.90;;;;;;5029519;28;20836;-72
2023/06/20 07:45:08;;;;;;;1999.90;999.90;;;21.20;99.90;;;;;;5030792;28;20438;-71
2023/06/20 07:47:34;;;;;;;1999.90;999.90;;;21.40;99.90;;;;;;5025994;28;20439;-69
2023/06/20 07:50:01;;;;;;;1999.90;999.90;;;21.40;99.90;;;;;;5030759;28;20913;-71
2023/06/20 07:52:27;;;;;;;1999.90;999.90;;;21.50;99.90;;;;;;5025857;28;20488;-72
2023/06/20 07:54:56;;;;;;;1999.90;999.90;;;21.90;99.90;;;;;;5027638;28;20443;-72
2023/06/20 07:57:23;;;;;;;1999.90;999.90;;;21.70;99.90;;;;;;5025280;28;20510;-70
2023/06/20 07:59:50;;;;;;;1999.90;999.90;;;21.90;99.90;;;;;;5031096;28;20430;-72
2023/06/20 08:02:16;;;;;;;1999.90;999.90;;;21.60;99.90;;;;;;5029190;28;20434;-72
2023/06/20 08:04:43;;;;;;;1999.90;999.90;;;21.60;99.90;;;;;;5025035;28;22066;-72
2023/06/20 08:07:10;;;;;;;1999.90;999.90;;;21.50;99.90;;;;;;5029736;28;20430;-71
2023/06/20 08:09:36;;;;;;;1999.90;999.90;;;21.50;99.90;;;;;;5030528;28;20433;-71
2023/06/20 08:12:05;;;;;;;1999.90;999.90;;;21.50;99.90;;;;;;5028295;28;20533;-72
2023/06/20 08:14:32;;;;;;;1999.90;999.90;;;21.50;99.90;;;;;;5030806;28;21116;-71
2023/06/20 08:16:58;;;;;;;1999.90;999.90;;;21.60;99.90;;;;;;5029928;28;20431;-72
2023/06/20 08:19:25;;;;;;;1999.90;999.90;;;21.60;99.90;;;;;;5029871;28;20427;-70
2023/06/20 08:21:52;;;;;;;1999.90;999.90;;;21.80;99.90;;;;;;5029282;28;20433;-69
2023/06/20 08:24:18;;;;;;;1999.90;999.90;;;21.90;99.90;;;;;;5030619;28;20932;-71
2023/06/20 08:26:45;;;;;;;1999.90;999.90;;;22.00;99.90;;;;;;5027180;28;20823;-71
2023/06/20 08:29:13;;;;;;;1999.90;999.90;;;22.00;99.90;;;;;;5013498;28;20474;-71
2023/06/20 08:31:39;;;;;;;1999.90;999.90;;;22.00;99.90;;;;;;5023878;28;20554;-72
2023/06/20 08:34:07;;;;;;;1999.90;999.90;;;22.10;99.90;;;;;;5027318;28;20485;-71
2023/06/20 08:36:33;;;;;;;1999.90;999.90;;;22.10;99.90;;;;;;5029849;28;20843;-72
2023/06/20 08:39:00;;;;;;;1999.90;999.90;;;22.30;99.90;;;;;;5029018;28;20431;-71
2023/06/20 08:41:27;;;;;;;1999.90;999.90;;;22.20;99.90;;;;;;5029422;28;20435;-71
2023/06/20 08:43:54;;;;;;;1999.90;999.90;;;22.20;99.90;;;;;;5028133;28;20447;-69
2023/06/20 08:46:24;;;;;;;1999.90;999.90;;;22.30;99.90;;;;;;5028452;28;20493;-70
2023/06/20 08:48:50;;;;;;;1999.90;999.90;;;22.50;99.90;;;;;;5027737;28;20489;-71
2023/06/20 08:51:18;;;;;;;1999.90;999.90;;;22.70;99.90;;;;;;5029032;28;20435;-74
2023/06/20 08:53:46;;;;;;;1999.90;999.90;;;23.10;99.90;;;;;;5029889;28;20840;-74
2023/06/20 08:56:13;;;;;;;1999.90;999.90;;;23.40;99.90;;;;;;5029742;28;20917;-74
2023/06/20 08:58:40;;;;;;;1999.90;999.90;;;23.40;99.90;;;;;;5023757;28;20490;-73
2023/06/20 09:01:08;;;;;;;1999.90;999.90;;;23.70;99.90;;;;;;5020511;28;20426;-74
2023/06/20 09:03:36;;;;;;;1999.90;999.90;;;23.70;99.90;;;;;;5028917;28;20782;-72
2023/06/20 09:06:02;;;;;;;1999.90;999.90;;;23.70;99.90;;;;;;5028330;28;20430;-73
2023/06/20 09:08:36;;;;;;;1999.90;999.90;;;23.60;99.90;;;;;;5029644;28;21566;-73
2023/06/20 09:11:06;;;;;;;1999.90;999.90;;;23.60;99.90;;;;;;5028409;28;20438;-74
2023/06/20 09:13:33;;;;;;;1999.90;999.90;;;23.20;99.90;;;;;;5027114;28;20466;-71
2023/06/20 09:16:05;;;;;;;1999.90;999.90;;;23.00;99.90;;;;;;5028734;28;20933;-71
2023/06/20 09:18:34;;;;;;;1999.90;999.90;;;23.10;99.90;;;;;;5029366;28;20435;-71
2023/06/20 09:21:02;;;;;;;1999.90;999.90;;;23.10;99.90;;;;;;5028549;28;20917;-71
2023/06/20 09:23:30;;;;;;;1999.90;999.90;;;23.40;99.90;;;;;;5026497;28;20933;-74
2023/06/20 09:25:57;;;;;;;1999.90;999.90;;;23.50;99.90;;;;;;5023396;28;20435;-74
2023/06/20 09:28:24;;;;;;;1999.90;999.90;;;23.50;99.90;;;;;;5027512;28;20438;-74
2023/06/20 09:30:51;;;;;;;1999.90;999.90;;;23.80;99.90;;;;;;5025935;28;20431;-72
2023/06/20 09:33:18;;;;;;;1999.90;999.90;;;23.70;99.90;;;;;;5028873;28;20442;-73
2023/06/20 09:35:45;;;;;;;1999.90;999.90;;;23.90;99.90;;;;;;5027898;28;20805;-74
2023/06/20 09:38:13;;;;;;;1999.90;999.90;;;23.80;99.90;;;;;;5027546;28;20438;-70
2023/06/20 09:40:43;;;;;;;1999.90;999.90;;;22.90;99.90;;;;;;5027008;28;20450;-71
2023/06/20 09:43:10;;;;;;;1999.90;999.90;;;23.10;99.90;;;;;;5027634;28;20882;-72
2023/06/20 09:45:37;;;;;;;1999.90;999.90;;;23.10;99.90;;;;;;5027134;28;20435;-72
2023/06/20 09:48:05;;;;;;;1999.90;999.90;;;23.50;99.90;;;;;;5026005;28;20439;-73
2023/06/20 09:50:33;;;;;;;1999.90;999.90;;;23.70;99.90;;;;;;5020730;28;20435;-73
2023/06/20 09:53:04;;;;;;;1999.90;999.90;;;24.00;99.90;;;;;;5025768;28;20443;-74
2023/06/20 09:55:35;;;;;;;1999.90;999.90;;;24.20;99.90;;;;;;5020245;28;20483;-73
2023/06/20 09:58:03;;;;;;;1999.90;999.90;;;24.40;99.90;;;;;;5019925;28;21126;-74
2023/06/20 10:00:31;;;;;;;1999.90;999.90;;;24.40;99.90;;;;;;5016323;28;20410;-74
2023/06/20 10:03:00;;;;;;;1999.90;999.90;;;24.60;99.90;;;;;;5027884;28;20929;-74
2023/06/20 10:05:29;;;;;;;1999.90;999.90;;;24.40;99.90;;;;;;5028098;28;20439;-74
2023/06/20 10:07:57;;;;;;;1999.90;999.90;;;24.10;99.90;;;;;;5022487;28;20439;-73
2023/06/20 10:10:24;;;;;;;1999.90;999.90;;;23.90;99.90;;;;;;5021461;28;20526;-72
2023/06/20 10:12:53;;;;;;;1999.90;999.90;;;23.80;99.90;;;;;;5024261;28;20454;-73
2023/06/20 10:15:22;;;;;;;1999.90;999.90;;;24.00;99.90;;;;;;5026874;28;20913;-75
2023/06/20 10:17:50;;;;;;;1999.90;999.90;;;24.00;99.90;;;;;;5026854;28;21308;-74
2023/06/20 10:20:28;;;;;;;1999.90;999.90;;;24.10;99.90;;;;;;5021038;28;21106;-74
2023/06/20 10:22:58;;;;;;;1999.90;999.90;;;24.10;99.90;;;;;;5024327;28;20758;-73
2023/06/20 10:25:26;;;;;;;1999.90;999.90;;;24.30;99.90;;;;;;5025462;28;20427;-74
2023/06/20 10:28:00;;;;;;;1999.90;999.90;;;24.70;99.90;;;;;;5028398;28;20489;-74
2023/06/20 10:30:56;;;;;;;1999.90;999.90;;;24.90;99.90;;;;;;5026214;28;20439;-74
2023/06/20 10:33:24;;;;;;;1999.90;999.90;;;25.20;99.90;;;;;;5026071;28;20507;-73
2023/06/20 10:35:53;;;;;;;1999.90;999.90;;;25.70;99.90;;;;;;5028309;28;20489;-74
2023/06/20 10:38:20;;;;;;;1999.90;999.90;;;26.00;99.90;;;;;;5029162;28;20443;-74
2023/06/20 10:40:47;;;;;;;1999.90;999.90;;;25.90;99.90;;;;;;5029970;28;20415;-74
2023/06/20 10:43:18;;;;;;;1999.90;999.90;;;25.90;99.90;;;;;;5027082;28;20948;-72
2023/06/20 10:45:57;;;;;;;1999.90;999.90;;;25.60;99.90;;;;;;5028111;28;20526;-74
2023/06/20 10:48:24;;;;;;;1999.90;999.90;;;25.50;99.90;;;;;;5026129;28;20943;-73
2023/06/20 10:50:51;;;;;;;1999.90;999.90;;;25.40;99.90;;;;;;5021212;28;20483;-73
2023/06/20 10:53:19;;;;;;;1999.90;999.90;;;25.50;99.90;;;;;;5027110;28;20446;-74
2023/06/20 10:55:45;;;;;;;1999.90;999.90;;;25.60;99.90;;;;;;5028267;28;20438;-73
2023/06/20 10:58:12;;;;;;;1999.90;999.90;;;25.50;99.90;;;;;;5027325;28;20925;-74
2023/06/20 11:00:40;;;;;;;1999.90;999.90;;;25.60;99.90;;;;;;5024426;28;20787;-72
2023/06/20 11:03:10;;;;;;;1999.90;999.90;;;25.40;99.90;;;;;;5024330;28;20439;-73
2023/06/20 11:05:36;;;;;;;1999.90;999.90;;;25.40;99.90;;;;;;5022171;28;20439;-73
2023/06/20 11:08:05;;;;;;;1999.90;999.90;;;25.30;99.90;;;;;;5022721;28;20497;-74
2023/06/20 11:10:33;;;;;;;1999.90;999.90;;;25.60;99.90;;;;;;5029218;28;20438;-72
2023/06/20 11:13:01;;;;;;;1999.90;999.90;;;25.50;99.90;;;;;;5027577;28;20456;-71
2023/06/20 11:15:30;;;;;;;1999.90;999.90;;;25.40;99.90;;;;;;5032206;28;20483;-73
2023/06/20 11:18:00;;;;;;;1999.90;999.90;;;25.50;99.90;;;;;;5033615;28;20422;-73
2023/06/20 11:20:27;;;;;;;1999.90;999.90;;;25.70;99.90;;;;;;5032406;28;20431;-72
2023/06/20 11:22:56;;;;;;;1999.90;999.90;;;25.90;99.90;;;;;;5032808;28;20449;-72
2023/06/20 11:25:24;;;;;;;1999.90;999.90;;;25.90;99.90;;;;;;5033550;28;20417;-72
2023/06/20 11:27:51;;;;;;;1999.90;999.90;;;25.90;99.90;;;;;;5033278;28;20541;-73
2023/06/20 11:30:25;;;;;;;1999.90;999.90;;;26.00;99.90;;;;;;5033155;28;20426;-74
2023/06/20 11:33:07;;;;;;;1999.90;999.90;;;26.20;99.90;;;;;;5032904;28;20411;-74
2023/06/20 11:35:44;;;;;;;1999.90;999.90;;;26.20;99.90;;;;;;5032135;28;20492;-74
2023/06/20 11:38:13;;;;;;;1999.90;999.90;;;26.20;99.90;;;;;;5033200;28;20422;-72
2023/06/20 11:40:42;;;;;;;1999.90;999.90;;;26.40;99.90;;;;;;5033077;28;20418;-73
2023/06/20 11:43:23;;;;;;;1999.90;999.90;;;26.50;99.90;;;;;;5032795;28;20431;-73
2023/06/20 11:45:49;;;;;;;1999.90;999.90;;;26.70;99.90;;;;;;5033139;28;20468;-73
2023/06/20 11:48:19;;;;;;;1999.90;999.90;;;27.00;99.90;;;;;;5033277;28;20504;-74
2023/06/20 11:50:54;;;;;;;1999.90;999.90;;;27.10;99.90;;;;;;5032101;28;20439;-72
2023/06/20 11:53:24;;;;;;;1999.90;999.90;;;26.80;99.90;;;;;;5031834;28;20423;-73
2023/06/20 11:55:53;;;;;;;1999.90;999.90;;;26.70;99.90;;;;;;5032042;28;20498;-73
2023/06/20 11:58:21;;;;;;;1999.90;999.90;;;26.80;99.90;;;;;;5030650;28;20506;-73
2023/06/20 12:01:00;;;;;;;1999.90;999.90;;;26.90;99.90;;;;;;5029031;28;20431;-73
2023/06/20 12:03:28;;;;;;;1999.90;999.90;;;27.10;99.90;;;;;;5029445;28;20434;-72
2023/06/20 12:05:56;;;;;;;1999.90;999.90;;;27.10;99.90;;;;;;5029135;28;20435;-73